Terminal Aerodrome Forecast
Issued by NWS

Home | Current Version | Previous Version | Graphics & Text | Print | Product List | Glossary On
Versions: 1 2 3 4 5 6 7 8 9 10 11 12 13 14 15
000
FTUS43 KMPX 301735
TAFRWF
TAF
KRWF 301735Z 3018/3118 17008KT P6SM SCT050 BKN110
     FM302200 15010KT P6SM VCSH BKN070
     FM310300 15008KT P6SM VCTS OVC050CB
      TEMPO 3104/3106 2SM TSRA OVC035CB
     FM310800 16010KT P6SM VCSH BKN040
     FM311200 22008KT P6SM SCT020 BKN050=

USA.gov is the U.S. government's official web portal to all federal, state and local government web resources and services.